createdAt,value
2022-09-24T00:01:30.725Z,100957.78
2022-09-24T15:16:47.319Z,100694.31
2022-09-24T15:20:12.836Z,100689.56
2022-09-24T15:23:35.128Z,100685.63
2022-09-24T15:27:03.477Z,100669.75
2022-09-24T15:30:25.387Z,100688.28
2022-09-24T15:33:48.682Z,100694.31
2022-09-24T15:37:13.113Z,100688.22
2022-09-24T15:40:36.838Z,100686.94
2022-09-24T15:44:00.226Z,100684.09
2022-09-24T15:47:23.333Z,100685.59
2022-09-24T15:50:50.506Z,100685.22
2022-09-24T15:54:13.729Z,100679.66
2022-09-24T15:57:35.955Z,100674.25
2022-09-24T16:00:57.819Z,100685.13
2022-09-24T16:04:19.802Z,100690.75
2022-09-24T16:07:43.806Z,100693.91
2022-09-24T16:11:08.976Z,100683.25
2022-09-24T16:14:31.279Z,100689.56
2022-09-24T16:17:53.344Z,100688.97
2022-09-24T16:21:16.822Z,100676.47
2022-09-24T16:24:40.249Z,100687.88
2022-09-24T16:28:02.357Z,100689.06
2022-09-24T16:31:24.729Z,100691.09
2022-09-24T16:34:46.796Z,100683.69
2022-09-24T16:38:09.378Z,100689.28
2022-09-24T16:41:34.635Z,100693.16
2022-09-24T16:44:56.715Z,100698.88
2022-09-24T16:48:18.637Z,100696.06
2022-09-24T16:51:40.491Z,100696.38
2022-09-24T16:55:02.334Z,100681.47
2022-09-24T16:58:25.553Z,100695.38
2022-09-24T17:01:47.801Z,100692.88
2022-09-24T17:05:09.922Z,100690.59
2022-09-24T17:08:46.225Z,100691.66
2022-09-24T17:12:08.297Z,100684.13
2022-09-24T17:15:31.748Z,100686.25
2022-09-24T17:18:54.775Z,100687.38
2022-09-24T17:22:16.560Z,100680.78
2022-09-24T17:25:38.764Z,100684.31
2022-09-24T17:29:00.915Z,100692.34
2022-09-24T17:32:24.415Z,100674.69
2022-09-24T17:35:55.227Z,100684.50
2022-09-24T17:39:18.264Z,100682.97
2022-09-24T17:42:40.611Z,100681.47
2022-09-24T17:46:04.485Z,100678.97
2022-09-24T17:49:29.334Z,100679.91
2022-09-24T17:52:51.721Z,100675.63
2022-09-24T17:56:15.688Z,100681.75
2022-09-24T17:59:37.893Z,100670.72
2022-09-24T18:03:00.311Z,100662.97
2022-09-24T18:06:28.157Z,100674.00
2022-09-24T18:09:56.219Z,100678.38
2022-09-24T18:13:18.341Z,100678.38
2022-09-24T18:16:40.114Z,100675.03
2022-09-24T18:20:02.035Z,100675.81
2022-09-24T18:23:25.324Z,100677.53
2022-09-24T18:26:51.338Z,100675.63
2022-09-24T18:30:15.662Z,100674.84
2022-09-24T18:33:39.828Z,100669.75
2022-09-24T18:37:01.889Z,100667.13
2022-09-24T18:40:25.951Z,100679.91
2022-09-24T18:43:47.917Z,100686.69
2022-09-24T18:47:14.722Z,100684.91
2022-09-24T18:50:37.220Z,100685.00
2022-09-24T18:54:01.077Z,100694.34
2022-09-24T18:57:24.663Z,100690.81
2022-09-24T19:00:54.860Z,100690.84
2022-09-24T19:04:17.955Z,100660.09
2022-09-24T19:07:40.024Z,100685.63
2022-09-24T19:11:07.914Z,100677.94
2022-09-24T19:14:31.519Z,100677.88
2022-09-24T19:17:53.965Z,100676.97
2022-09-24T19:21:17.267Z,100676.97
2022-09-24T19:24:39.223Z,100667.47
2022-09-24T19:28:01.138Z,100674.34
2022-09-24T19:31:26.884Z,100675.19
2022-09-24T19:34:49.805Z,100683.03
2022-09-24T19:38:11.964Z,100670.88
2022-09-24T19:41:33.771Z,100659.13
2022-09-24T19:44:55.864Z,100671.84
2022-09-24T19:48:19.957Z,100678.00
2022-09-24T19:51:42.107Z,100635.38
2022-09-24T19:55:05.106Z,100671.84
2022-09-24T19:58:27.781Z,100671.00
2022-09-24T20:01:49.794Z,100670.19
2022-09-24T20:05:13.177Z,100671.00
2022-09-24T20:08:35.506Z,100665.06
2022-09-24T20:11:58.260Z,100667.69
2022-09-24T20:15:19.911Z,100660.81
2022-09-24T20:18:42.339Z,100669.38
2022-09-24T20:22:08.729Z,100655.78
2022-09-24T20:25:48.481Z,100665.97
2022-09-24T20:29:12.056Z,100670.31
2022-09-24T20:32:35.830Z,100663.47
2022-09-24T20:36:02.329Z,100663.44
2022-09-24T20:39:25.659Z,100664.28
2022-09-24T20:42:48.023Z,100652.31
2022-09-24T20:46:13.709Z,100665.19
2022-09-24T20:49:35.989Z,100659.06
2022-09-24T20:52:58.019Z,100652.16
2022-09-24T20:56:22.217Z,100647.09
2022-09-24T20:59:44.248Z,100656.44
2022-09-24T21:03:25.595Z,100658.94
2022-09-24T21:06:49.889Z,100655.47
2022-09-24T21:10:14.093Z,100629.03
2022-09-24T21:13:43.381Z,100611.25
2022-09-24T21:17:05.867Z,100604.31
2022-09-24T21:20:27.973Z,100650.19
2022-09-24T21:23:53.411Z,100605.91
2022-09-24T21:27:16.433Z,100646.72
2022-09-24T21:30:40.797Z,100639.09
2022-09-24T21:34:02.790Z,100634.19
2022-09-24T21:37:25.498Z,100640.00
2022-09-24T21:40:54.077Z,100629.25
2022-09-24T21:44:17.189Z,100645.41
2022-09-24T21:47:42.468Z,100631.69
2022-09-24T21:51:07.114Z,100599.72
2022-09-24T21:54:31.104Z,100626.09
2022-09-24T21:57:53.600Z,100617.06
2022-09-24T22:01:18.150Z,100632.53
2022-09-24T22:04:41.501Z,100593.56
2022-09-24T22:08:11.908Z,100578.38
2022-09-24T22:11:34.715Z,100625.03
2022-09-24T22:14:56.845Z,100621.53
2022-09-24T22:18:19.556Z,100590.97
2022-09-24T22:21:43.323Z,100625.13
2022-09-24T22:25:06.221Z,100593.69
2022-09-24T22:28:29.726Z,100579.91
2022-09-24T22:31:51.849Z,100624.94
2022-09-24T22:35:43.558Z,100629.91
2022-09-24T22:39:08.125Z,100601.59
2022-09-24T22:42:30.284Z,100633.09
2022-09-24T22:45:58.523Z,100623.69
2022-09-24T22:49:21.049Z,100634.88
2022-09-24T22:52:43.519Z,100599.34
2022-09-24T22:56:09.719Z,100606.44
2022-09-24T22:59:32.002Z,100629.44
2022-09-24T23:02:54.305Z,100609.91
2022-09-24T23:06:16.704Z,100625.31
2022-09-24T23:09:38.611Z,100623.66
2022-09-24T23:13:01.960Z,100618.06
2022-09-24T23:16:25.573Z,100574.09
2022-09-24T23:19:50.350Z,100612.81
2022-09-24T23:23:12.295Z,100624.03
2022-09-24T23:26:34.783Z,100611.28
2022-09-24T23:29:58.686Z,100622.38
2022-09-24T23:33:20.612Z,100615.53
2022-09-24T23:36:43.069Z,100605.41
2022-09-24T23:40:05.604Z,100602.91
2022-09-24T23:43:28.740Z,100607.19
2022-09-24T23:46:52.120Z,100606.44
2022-09-24T23:50:14.215Z,100611.66
2022-09-24T23:53:36.885Z,100615.13
2022-09-24T23:56:58.661Z,100597.25
